createdAt,value
2023-04-21T00:01:41.135Z,4.30
2023-04-21T00:04:10.330Z,5.10
2023-04-21T00:06:41.634Z,5.00
2023-04-21T00:09:11.042Z,4.80
2023-04-21T00:11:39.064Z,4.70
2023-04-21T00:14:07.070Z,4.30
2023-04-21T00:16:36.097Z,4.60
2023-04-21T00:19:07.078Z,5.00
2023-04-21T00:21:35.729Z,4.40
2023-04-21T00:24:04.696Z,4.70
2023-04-21T00:26:32.604Z,5.60
2023-04-21T00:29:01.179Z,5.50
2023-04-21T00:31:29.627Z,4.60
2023-04-21T00:33:59.067Z,4.90
2023-04-21T00:36:28.749Z,5.10
2023-04-21T00:38:56.809Z,4.20
2023-04-21T00:41:25.014Z,4.70
2023-04-21T00:44:06.799Z,5.10
2023-04-21T00:46:35.226Z,4.60
2023-04-21T00:49:06.927Z,4.30
2023-04-21T00:51:35.985Z,4.90
2023-04-21T00:54:05.066Z,5.10
2023-04-21T00:56:34.045Z,5.10
2023-04-21T00:59:03.725Z,5.30
2023-04-21T01:01:32.658Z,4.80
2023-04-21T01:04:01.979Z,4.30
2023-04-21T01:06:34.265Z,4.70
2023-04-21T01:09:03.997Z,4.50
2023-04-21T01:11:32.398Z,4.70
2023-04-21T01:14:01.311Z,4.90
2023-04-21T01:16:29.770Z,4.50
2023-04-21T01:18:59.167Z,4.90
2023-04-21T01:21:28.768Z,4.70
2023-04-21T01:23:57.013Z,5.30
2023-04-21T01:26:25.023Z,5.10
2023-04-21T01:28:52.998Z,4.50
2023-04-21T01:31:21.191Z,4.90
2023-04-21T01:33:49.224Z,5.00
2023-04-21T01:36:17.731Z,4.50
2023-04-21T01:38:45.881Z,4.70
2023-04-21T01:41:14.023Z,4.80
2023-04-21T01:43:42.082Z,4.80
2023-04-21T01:46:10.740Z,5.70
2023-04-21T01:48:39.201Z,4.80
2023-04-21T01:51:07.780Z,4.80
2023-04-21T01:53:35.831Z,5.00
2023-04-21T01:56:04.109Z,4.40
2023-04-21T01:58:33.453Z,4.10
2023-04-21T02:01:02.050Z,4.20
2023-04-21T02:03:30.840Z,5.30
2023-04-21T02:05:59.293Z,4.90
2023-04-21T02:08:27.279Z,5.30
2023-04-21T02:10:55.427Z,4.70
2023-04-21T02:13:24.533Z,4.90
2023-04-21T02:16:02.488Z,5.60
2023-04-21T02:18:34.791Z,4.80
2023-04-21T02:21:03.175Z,5.20
2023-04-21T02:23:31.649Z,4.70
2023-04-21T02:25:59.824Z,4.50
2023-04-21T02:28:27.804Z,4.70
2023-04-21T02:30:55.937Z,4.20
2023-04-21T02:33:24.140Z,4.50
2023-04-21T02:35:52.342Z,4.80
2023-04-21T02:41:07.125Z,4.40
2023-04-21T02:43:35.485Z,5.00
2023-04-21T02:46:09.737Z,4.90
2023-04-21T02:48:37.819Z,4.30
2023-04-21T02:51:14.225Z,4.80
2023-04-21T02:53:43.755Z,4.10
2023-04-21T02:56:12.409Z,4.30
2023-04-21T02:58:42.248Z,5.50
2023-04-21T03:01:11.568Z,4.70
2023-04-21T03:03:39.740Z,4.20
2023-04-21T03:06:07.983Z,4.20
2023-04-21T03:08:36.364Z,4.70
2023-04-21T03:11:04.375Z,4.70
2023-04-21T03:13:35.413Z,4.60
2023-04-21T03:16:03.648Z,4.20
2023-04-21T03:18:34.896Z,4.30
2023-04-21T03:21:03.424Z,5.20
2023-04-21T03:23:31.736Z,4.80
2023-04-21T03:25:59.823Z,5.40
2023-04-21T03:28:27.832Z,6.30
2023-04-21T03:30:56.122Z,4.90
2023-04-21T03:33:24.099Z,4.50
2023-04-21T03:35:52.157Z,4.60
2023-04-21T03:38:20.220Z,4.60
2023-04-21T03:40:48.868Z,4.90
2023-04-21T03:43:19.395Z,4.40
2023-04-21T03:45:47.712Z,4.60
2023-04-21T03:48:16.168Z,5.00
2023-04-21T03:50:46.270Z,4.50
2023-04-21T03:53:14.232Z,4.50
2023-04-21T03:55:42.361Z,4.50
2023-04-21T03:58:10.722Z,5.20
2023-04-21T04:00:38.644Z,4.70
2023-04-21T04:03:07.699Z,5.70
2023-04-21T04:05:36.445Z,4.30
2023-04-21T04:08:04.864Z,4.50
2023-04-21T04:10:32.766Z,5.00
2023-04-21T04:13:01.359Z,4.90
2023-04-21T04:15:29.439Z,4.40
2023-04-21T04:18:03.717Z,4.00
2023-04-21T04:20:32.541Z,3.90
2023-04-21T04:23:00.911Z,4.70
2023-04-21T04:25:29.211Z,4.90
2023-04-21T04:27:57.480Z,4.40
2023-04-21T04:30:28.017Z,4.50
2023-04-21T04:32:58.106Z,4.50
2023-04-21T04:35:28.402Z,4.60
2023-04-21T04:37:57.978Z,4.40
2023-04-21T04:40:25.995Z,3.90
2023-04-21T04:42:55.254Z,5.00
2023-04-21T04:45:23.521Z,4.60
2023-04-21T04:47:51.629Z,4.70
2023-04-21T04:50:19.672Z,4.20
2023-04-21T04:52:49.164Z,4.40
2023-04-21T04:55:17.259Z,3.80
2023-04-21T04:57:45.596Z,4.50
2023-04-21T05:00:14.533Z,4.30
2023-04-21T05:02:43.601Z,4.10
2023-04-21T05:05:11.720Z,5.60
2023-04-21T05:07:40.509Z,4.70
2023-04-21T05:10:10.865Z,4.50
2023-04-21T05:12:39.575Z,4.50
2023-04-21T05:15:08.851Z,4.60
2023-04-21T05:17:37.803Z,3.90
2023-04-21T05:20:07.301Z,4.00
2023-04-21T05:22:39.433Z,4.80
2023-04-21T05:25:09.970Z,4.20
2023-04-21T05:27:38.500Z,5.00
2023-04-21T05:30:07.550Z,4.70
2023-04-21T05:32:36.647Z,4.40
2023-04-21T05:35:08.407Z,4.00
2023-04-21T05:37:36.626Z,4.30
2023-04-21T05:40:05.515Z,4.70
2023-04-21T05:42:33.803Z,4.60
2023-04-21T05:45:01.857Z,4.20
2023-04-21T05:47:30.362Z,4.20
2023-04-21T05:49:58.362Z,4.50
2023-04-21T05:52:26.339Z,5.10
2023-04-21T05:54:56.259Z,4.10
2023-04-21T05:57:24.205Z,4.10
2023-04-21T05:59:52.377Z,4.60
2023-04-21T06:02:20.834Z,4.30
2023-04-21T06:04:49.034Z,4.30
2023-04-21T06:07:18.860Z,5.20
2023-04-21T06:09:51.143Z,5.00
2023-04-21T06:12:20.263Z,4.10
2023-04-21T06:14:56.718Z,4.20
2023-04-21T06:17:26.516Z,4.10
2023-04-21T06:19:56.192Z,4.00
2023-04-21T06:22:28.498Z,4.00
2023-04-21T06:27:26.633Z,4.40
2023-04-21T06:29:56.183Z,4.40
2023-04-21T06:32:24.140Z,3.90
2023-04-21T06:34:52.169Z,4.80
2023-04-21T06:37:20.276Z,3.30
2023-04-21T06:39:48.458Z,4.30
2023-04-21T06:42:16.438Z,4.80
2023-04-21T06:44:44.509Z,3.70
2023-04-21T06:47:12.581Z,4.00
2023-04-21T06:49:40.836Z,4.00
2023-04-21T06:52:08.778Z,4.40
2023-04-21T06:54:38.401Z,6.80
2023-04-21T06:57:06.742Z,5.30
2023-04-21T06:59:34.805Z,4.60
2023-04-21T07:02:02.840Z,4.30
2023-04-21T07:04:32.440Z,3.90
2023-04-21T07:07:03.061Z,4.00
2023-04-21T07:09:33.992Z,4.50
2023-04-21T07:12:03.063Z,4.30
2023-04-21T07:14:31.205Z,4.00
2023-04-21T07:16:59.559Z,4.00
2023-04-21T07:19:27.718Z,3.90
2023-04-21T07:21:56.012Z,4.50
2023-04-21T07:24:24.212Z,4.20
2023-04-21T07:26:52.283Z,5.50
2023-04-21T07:29:20.562Z,4.60
2023-04-21T07:31:49.024Z,4.20
2023-04-21T07:34:17.221Z,4.40
2023-04-21T07:36:45.145Z,3.90
2023-04-21T07:39:13.112Z,4.40
2023-04-21T07:41:41.177Z,3.70
2023-04-21T07:44:09.145Z,3.70
2023-04-21T07:46:38.575Z,5.60
2023-04-21T07:49:06.849Z,4.10
2023-04-21T07:51:36.763Z,3.90
2023-04-21T07:54:04.770Z,4.10
2023-04-21T07:56:32.746Z,3.30
2023-04-21T07:59:00.771Z,3.60
2023-04-21T08:01:28.650Z,3.60
2023-04-21T08:03:56.732Z,3.70
2023-04-21T08:06:25.098Z,4.00
2023-04-21T08:08:55.054Z,3.80
2023-04-21T08:11:23.144Z,4.40
2023-04-21T08:13:51.715Z,4.30
2023-04-21T08:16:19.882Z,3.30
2023-04-21T08:18:48.012Z,3.60
2023-04-21T08:21:16.384Z,4.00
2023-04-21T08:23:44.370Z,4.00
2023-04-21T08:26:13.370Z,2.90
2023-04-21T08:28:41.462Z,3.60
2023-04-21T08:31:09.662Z,3.50
2023-04-21T08:33:43.867Z,3.90
2023-04-21T08:36:28.335Z,4.30
2023-04-21T08:38:57.444Z,3.60
2023-04-21T08:41:26.406Z,3.60
2023-04-21T08:43:54.443Z,3.80
2023-04-21T08:46:22.752Z,4.10
2023-04-21T08:48:52.254Z,3.10
2023-04-21T08:51:24.648Z,4.20
2023-04-21T08:53:54.055Z,4.00
2023-04-21T08:56:22.236Z,3.20
2023-04-21T08:58:50.256Z,3.30
2023-04-21T09:01:18.354Z,3.20
2023-04-21T09:03:47.197Z,3.50
2023-04-21T09:06:16.648Z,3.70
2023-04-21T09:08:53.822Z,3.70
2023-04-21T09:11:21.955Z,3.40
2023-04-21T09:13:49.904Z,4.10
2023-04-21T09:16:20.287Z,3.60
2023-04-21T09:18:48.590Z,3.20
2023-04-21T09:21:17.617Z,3.30
2023-04-21T09:23:50.213Z,3.80
2023-04-21T09:26:19.768Z,3.30
2023-04-21T09:28:48.349Z,3.00
2023-04-21T09:31:19.938Z,3.20
2023-04-21T09:36:22.366Z,3.20
2023-04-21T09:41:33.294Z,3.40
2023-04-21T09:44:01.796Z,2.90
2023-04-21T09:46:32.780Z,3.50
2023-04-21T09:49:01.568Z,2.90
2023-04-21T09:51:49.258Z,3.60
2023-04-21T09:54:29.640Z,3.00
2023-04-21T09:57:00.154Z,3.70
2023-04-21T09:59:38.130Z,4.10
2023-04-21T10:02:07.281Z,3.30
2023-04-21T10:04:36.746Z,3.30
2023-04-21T10:07:05.721Z,3.30
2023-04-21T10:09:45.562Z,3.90
2023-04-21T10:12:13.553Z,3.80
2023-04-21T10:14:42.732Z,3.40
2023-04-21T10:17:10.936Z,3.50
2023-04-21T10:19:49.239Z,3.20
2023-04-21T10:22:27.638Z,3.50
2023-04-21T10:24:57.057Z,3.50
2023-04-21T10:27:36.149Z,3.40
2023-04-21T10:30:23.483Z,3.40
2023-04-21T10:33:02.843Z,4.30
2023-04-21T10:36:01.068Z,3.70
2023-04-21T10:38:41.828Z,3.60
2023-04-21T10:41:29.560Z,3.90
2023-04-21T10:44:07.756Z,3.40
2023-04-21T10:46:37.170Z,3.30
2023-04-21T10:49:13.165Z,3.80
2023-04-21T10:51:59.532Z,4.10
2023-04-21T10:54:36.801Z,3.40
2023-04-21T10:57:06.619Z,3.90
2023-04-21T10:59:35.908Z,3.40
2023-04-21T11:02:06.427Z,4.00
2023-04-21T11:04:35.360Z,4.40
2023-04-21T11:07:14.357Z,4.00
2023-04-21T11:09:43.393Z,3.40
2023-04-21T11:12:13.850Z,3.30
2023-04-21T11:14:43.507Z,3.50
2023-04-21T11:17:12.837Z,3.50
2023-04-21T11:19:41.331Z,4.40
2023-04-21T11:22:09.338Z,3.70
2023-04-21T11:24:37.602Z,3.60
2023-04-21T11:27:08.556Z,3.20
2023-04-21T11:29:36.547Z,3.70
2023-04-21T11:32:09.509Z,3.60
2023-04-21T11:34:38.417Z,4.00
2023-04-21T11:37:10.786Z,4.00
2023-04-21T11:39:40.896Z,3.20
2023-04-21T11:42:08.894Z,3.50
2023-04-21T11:44:38.876Z,4.10
2023-04-21T11:47:20.481Z,3.80
2023-04-21T11:49:56.846Z,4.40
2023-04-21T11:52:29.319Z,3.80
2023-04-21T11:55:13.122Z,4.00
2023-04-21T11:57:41.140Z,3.80
2023-04-21T12:00:14.667Z,3.80
2023-04-21T12:02:43.271Z,4.70
2023-04-21T12:05:12.682Z,4.20
2023-04-21T12:07:43.244Z,3.20
2023-04-21T12:10:16.687Z,4.40
2023-04-21T12:12:44.903Z,4.30
2023-04-21T12:15:17.533Z,3.90
2023-04-21T12:17:45.946Z,3.80
2023-04-21T12:20:21.680Z,3.80
2023-04-21T12:22:50.196Z,3.30
2023-04-21T12:25:18.181Z,3.70
2023-04-21T12:27:52.593Z,4.20
2023-04-21T12:30:21.225Z,4.30
2023-04-21T12:32:49.431Z,3.60
2023-04-21T12:35:17.557Z,4.00
2023-04-21T12:37:45.707Z,4.40
2023-04-21T12:40:13.703Z,4.10
2023-04-21T12:42:41.850Z,4.10
2023-04-21T12:45:10.109Z,4.40
2023-04-21T12:47:39.385Z,3.60
2023-04-21T12:50:08.338Z,4.40
2023-04-21T12:52:36.423Z,4.10
2023-04-21T12:55:04.752Z,4.30
2023-04-21T12:57:33.393Z,3.80
2023-04-21T13:00:01.476Z,4.90
2023-04-21T13:02:31.370Z,4.70
2023-04-21T13:05:00.191Z,3.60
2023-04-21T13:07:31.468Z,4.20
2023-04-21T13:09:59.504Z,4.50
2023-04-21T13:12:27.426Z,3.60
2023-04-21T13:14:55.543Z,3.90
2023-04-21T13:17:23.617Z,3.60
2023-04-21T13:19:52.088Z,4.10
2023-04-21T13:22:20.163Z,4.30
2023-04-21T13:24:48.321Z,3.80
2023-04-21T13:27:16.363Z,3.90
2023-04-21T13:29:44.310Z,3.60
2023-04-21T13:32:12.299Z,4.20
2023-04-21T13:34:40.792Z,4.20
2023-04-21T13:37:11.153Z,4.60
2023-04-21T13:39:40.070Z,3.20
2023-04-21T13:42:08.143Z,4.00
2023-04-21T13:44:36.158Z,4.10
2023-04-21T13:47:05.552Z,4.40
2023-04-21T13:49:35.477Z,4.00
2023-04-21T13:52:03.419Z,4.10
2023-04-21T13:54:31.935Z,5.30
2023-04-21T13:57:00.173Z,4.20
2023-04-21T13:59:28.436Z,4.60
2023-04-21T14:01:56.453Z,3.70
2023-04-21T14:04:24.501Z,4.60
2023-04-21T14:06:52.924Z,4.50
2023-04-21T14:09:21.645Z,4.60
2023-04-21T14:11:49.577Z,4.80
2023-04-21T14:14:27.682Z,4.10
2023-04-21T14:17:08.476Z,4.60
2023-04-21T14:19:37.109Z,4.80
2023-04-21T14:22:06.806Z,4.30
2023-04-21T14:24:35.971Z,4.50
2023-04-21T14:27:05.864Z,5.00
2023-04-21T14:29:34.627Z,5.10
2023-04-21T14:32:03.130Z,4.50
2023-04-21T14:34:32.036Z,3.90
2023-04-21T14:37:00.697Z,4.90
2023-04-21T14:39:28.885Z,4.60
2023-04-21T14:41:57.014Z,5.50
2023-04-21T14:44:25.207Z,4.30
2023-04-21T14:47:05.756Z,4.40
2023-04-21T14:49:40.516Z,5.10
2023-04-21T14:52:11.226Z,4.70
2023-04-21T14:54:39.478Z,4.70
2023-04-21T14:58:01.803Z,4.60
2023-04-21T15:00:31.871Z,4.80
2023-04-21T15:03:00.188Z,7.20
2023-04-21T15:05:29.317Z,4.90
2023-04-21T15:07:57.335Z,4.50
2023-04-21T15:10:25.321Z,4.90
2023-04-21T15:12:53.562Z,4.10
2023-04-21T15:15:21.707Z,5.40
2023-04-21T15:17:49.786Z,4.70
2023-04-21T15:20:17.848Z,5.40
2023-04-21T15:22:45.828Z,5.70
2023-04-21T15:25:14.143Z,4.70
2023-04-21T15:27:42.153Z,4.60
2023-04-21T15:30:10.976Z,4.60
2023-04-21T15:32:39.357Z,5.40
2023-04-21T15:35:07.659Z,5.00
2023-04-21T15:37:36.584Z,5.10
2023-04-21T15:40:05.230Z,4.40
2023-04-21T15:42:36.299Z,6.00
2023-04-21T15:47:32.915Z,5.30
2023-04-21T15:50:01.025Z,6.00
2023-04-21T15:52:29.316Z,5.00
2023-04-21T15:54:57.407Z,5.30
2023-04-21T15:57:29.802Z,6.80
2023-04-21T15:59:58.542Z,31.80
2023-04-21T16:02:26.908Z,13.70
2023-04-21T16:04:55.197Z,24.20
2023-04-21T16:07:23.693Z,8.00
2023-04-21T16:09:51.807Z,7.70
2023-04-21T16:12:20.035Z,6.80
2023-04-21T16:14:57.714Z,5.90
2023-04-21T16:17:32.664Z,7.40
2023-04-21T16:20:00.703Z,6.60
2023-04-21T16:22:28.790Z,8.20
2023-04-21T16:24:58.598Z,7.90
2023-04-21T16:27:26.686Z,9.60
2023-04-21T16:29:54.672Z,8.60
2023-04-21T16:32:22.746Z,8.70
2023-04-21T16:34:50.807Z,9.90
2023-04-21T16:37:18.792Z,9.30
2023-04-21T16:39:47.023Z,9.00
2023-04-21T16:42:15.648Z,8.00
2023-04-21T16:44:43.608Z,8.20
2023-04-21T16:47:11.632Z,8.00
2023-04-21T16:49:39.848Z,7.70
2023-04-21T16:52:07.838Z,7.10
2023-04-21T16:54:36.005Z,7.60
2023-04-21T16:57:04.242Z,6.40
2023-04-21T16:59:33.299Z,6.50
2023-04-21T17:02:01.598Z,6.30
2023-04-21T17:04:29.896Z,6.50
2023-04-21T17:06:58.013Z,5.90
2023-04-21T17:09:25.983Z,7.50
2023-04-21T17:11:54.119Z,9.80
2023-04-21T17:14:23.676Z,11.10
2023-04-21T17:16:51.896Z,9.00
2023-04-21T17:19:20.212Z,8.00
2023-04-21T17:21:48.294Z,8.60
2023-04-21T17:24:16.447Z,10.30
2023-04-21T17:26:44.548Z,9.20
2023-04-21T17:29:12.804Z,10.10
2023-04-21T17:31:41.467Z,15.40
2023-04-21T17:34:09.624Z,17.40
2023-04-21T17:36:39.533Z,11.30
2023-04-21T17:39:08.464Z,16.10
2023-04-21T17:41:37.259Z,17.80
2023-04-21T17:44:05.456Z,17.10
2023-04-21T17:46:34.000Z,21.00
2023-04-21T17:49:03.460Z,19.40
2023-04-21T17:51:32.040Z,12.60
2023-04-21T17:54:00.073Z,12.10
2023-04-21T17:56:28.662Z,14.60
2023-04-21T17:58:56.668Z,21.10
2023-04-21T18:01:24.718Z,15.80
2023-04-21T18:06:23.850Z,19.50
2023-04-21T18:08:52.152Z,16.00
2023-04-21T18:11:20.597Z,14.00
2023-04-21T18:13:48.681Z,12.20
2023-04-21T18:16:19.526Z,10.80
2023-04-21T18:18:47.653Z,10.90
2023-04-21T18:21:16.276Z,10.70
2023-04-21T18:23:46.022Z,9.40
2023-04-21T18:26:14.156Z,10.30
2023-04-21T18:28:42.152Z,9.60
2023-04-21T18:31:10.347Z,8.90
2023-04-21T18:33:38.420Z,9.30
2023-04-21T18:36:06.665Z,9.60
2023-04-21T18:38:34.637Z,9.70
2023-04-21T18:41:03.020Z,9.20
2023-04-21T18:43:31.500Z,10.60
2023-04-21T18:45:59.623Z,8.50
2023-04-21T18:48:27.491Z,8.50
2023-04-21T18:50:55.406Z,8.10
2023-04-21T18:53:23.471Z,7.90
2023-04-21T18:55:51.652Z,7.70
2023-04-21T18:58:19.948Z,8.50
2023-04-21T19:00:48.194Z,7.20
2023-04-21T19:03:16.273Z,8.80
2023-04-21T19:05:45.716Z,8.50
2023-04-21T19:08:14.942Z,7.60
2023-04-21T19:10:43.640Z,7.80
2023-04-21T19:13:13.514Z,7.60
2023-04-21T19:15:41.456Z,8.20
2023-04-21T19:18:09.566Z,8.10
2023-04-21T19:20:37.647Z,8.90
2023-04-21T19:23:05.845Z,8.10
2023-04-21T19:25:33.847Z,7.80
2023-04-21T19:28:02.142Z,7.90
2023-04-21T19:30:30.493Z,8.50
2023-04-21T19:32:58.640Z,8.90
2023-04-21T19:35:26.999Z,8.50
2023-04-21T19:37:59.701Z,7.20
2023-04-21T19:40:30.752Z,9.20
2023-04-21T19:43:01.996Z,7.10
2023-04-21T19:45:29.988Z,8.00
2023-04-21T19:47:58.080Z,6.80
2023-04-21T19:50:26.032Z,6.90
2023-04-21T19:52:53.988Z,6.50
2023-04-21T19:55:22.442Z,6.90
2023-04-21T19:57:50.451Z,6.70
2023-04-21T20:00:18.525Z,6.70
2023-04-21T20:02:46.702Z,7.10
2023-04-21T20:05:14.975Z,6.80
2023-04-21T20:07:42.967Z,7.10
2023-04-21T20:10:11.324Z,6.70
2023-04-21T20:12:39.618Z,6.30
2023-04-21T20:15:08.700Z,6.20
2023-04-21T20:17:37.204Z,6.90
2023-04-21T20:20:06.365Z,7.60
2023-04-21T20:22:35.471Z,7.30
2023-04-21T20:25:04.292Z,6.30
2023-04-21T20:27:32.380Z,6.50
2023-04-21T20:30:00.288Z,8.00
2023-04-21T20:32:28.512Z,6.90
2023-04-21T20:34:56.617Z,6.40
2023-04-21T20:37:24.814Z,6.60
2023-04-21T20:39:52.862Z,6.30
2023-04-21T20:42:21.894Z,7.20
2023-04-21T20:44:49.857Z,6.50
2023-04-21T20:47:17.802Z,7.80
2023-04-21T20:49:47.562Z,7.00
2023-04-21T20:52:16.075Z,6.70
2023-04-21T20:54:44.333Z,7.60
2023-04-21T20:57:12.305Z,7.30
2023-04-21T20:59:40.604Z,8.00
2023-04-21T21:02:08.990Z,7.50
2023-04-21T21:04:37.328Z,8.30
2023-04-21T21:07:05.677Z,8.90
2023-04-21T21:09:33.911Z,7.70
2023-04-21T21:12:02.416Z,8.30
2023-04-21T21:14:30.799Z,9.90
2023-04-21T21:16:58.773Z,9.00
2023-04-21T21:19:26.848Z,10.20
2023-04-21T21:21:57.668Z,10.80
2023-04-21T21:24:26.488Z,9.80
2023-04-21T21:26:54.484Z,10.30
2023-04-21T21:29:22.402Z,10.30
2023-04-21T21:31:50.693Z,9.90
2023-04-21T21:34:18.697Z,10.50
2023-04-21T21:36:46.664Z,9.50
2023-04-21T21:39:15.645Z,10.40
2023-04-21T21:41:43.669Z,11.30
2023-04-21T21:44:11.715Z,11.90
2023-04-21T21:46:39.762Z,9.90
2023-04-21T21:49:08.498Z,10.50
2023-04-21T21:51:36.408Z,8.30
2023-04-21T21:54:04.387Z,10.10
2023-04-21T21:56:32.316Z,9.10
2023-04-21T21:59:00.273Z,10.30
2023-04-21T22:01:28.264Z,10.10
2023-04-21T22:03:56.739Z,9.00
2023-04-21T22:06:26.904Z,9.60
2023-04-21T22:08:55.176Z,9.50
2023-04-21T22:11:23.397Z,9.70
2023-04-21T22:13:52.848Z,10.30
2023-04-21T22:16:20.788Z,9.70
2023-04-21T22:18:49.363Z,10.20
2023-04-21T22:21:17.581Z,10.40
2023-04-21T22:23:45.776Z,10.20
2023-04-21T22:26:13.673Z,10.20
2023-04-21T22:28:41.935Z,8.80
2023-04-21T22:31:10.641Z,10.90
2023-04-21T22:33:38.890Z,11.40
2023-04-21T22:36:09.975Z,9.80
2023-04-21T22:38:40.117Z,10.30
2023-04-21T22:41:08.074Z,10.40
2023-04-21T22:43:36.195Z,10.20
2023-04-21T22:46:04.452Z,10.40
2023-04-21T22:48:33.404Z,9.40
2023-04-21T22:51:01.798Z,10.20
2023-04-21T22:53:29.878Z,9.80
2023-04-21T22:55:57.892Z,9.90
2023-04-21T22:58:26.522Z,11.00
2023-04-21T23:00:54.724Z,10.10
2023-04-21T23:03:23.811Z,9.90
2023-04-21T23:05:51.928Z,10.10
2023-04-21T23:08:19.916Z,9.80
2023-04-21T23:10:47.939Z,8.60
2023-04-21T23:13:16.219Z,9.90
2023-04-21T23:15:44.233Z,9.20
2023-04-21T23:18:12.120Z,10.70
2023-04-21T23:20:40.072Z,9.70
2023-04-21T23:23:08.185Z,11.50
2023-04-21T23:25:36.290Z,11.20
2023-04-21T23:28:04.471Z,10.10
2023-04-21T23:30:32.440Z,10.70
2023-04-21T23:33:01.116Z,10.00
2023-04-21T23:35:29.419Z,10.20
2023-04-21T23:37:57.375Z,10.80
2023-04-21T23:40:25.216Z,10.00
2023-04-21T23:42:53.289Z,10.30
2023-04-21T23:45:21.313Z,11.70
2023-04-21T23:47:49.576Z,11.40
2023-04-21T23:50:17.737Z,11.30
2023-04-21T23:52:45.926Z,11.80
2023-04-21T23:55:13.973Z,11.10
2023-04-21T23:57:44.762Z,10.50
